Aviation Digital Data Service (ADDS)

Output produced by TAFs form (2021 UTC 18 July 2018)
found at http://www.aviationweather.gov/adds/tafs/
 
KSTC 181727Z 1818/1918 16005KT P6SM BKN250 
     FM190600 13005KT P6SM BKN130 
     FM191100 12008KT P6SM VCSH OVC035 
     FM191300 11009KT 6SM -RA BKN040 
     FM191600 12012KT 6SM -RA OVC015